Jackson, Kentucky
Current Conditions -  °F | °C
As of 3:17 AM on Friday 19 Dec 2014 (Local Time) from KJKL Reporting Station
Overcast Overcast  
Wind Chill: 30°   Ceiling: 6000
Heat Index: 30°   Visibility: 10mi
Dew Point: 24°   Wind: 0mph
Humidity: 79%   Direction: NA
Pressure: 30.19"   Gusts: NA
Location:  37.55°N, 83.38°W
Report Text: KJKL 190817Z AUTO 00000KT 10SM SCT015 OVC060 M01/M04 A3019 RMK AO2 T10111044
Loading
Personal Weather Stations






























Interactive Weather Map New forecast layout! Learn more

10-Day Weather Forecast

Advertisements
Track Severe Weather on mobile